Time;durP1;ratioP1;P1;durP2;ratioP2;P2;SDS_P1;SDS_P2;PMS_P1;PMS_P2;Temp;Humidity;BMP_temperature;BMP_pressure;BME280_temperature;BME280_humidity;BME280_pressure;Samples;Min_cycle;Max_cycle;Signal;HPM_P1;HPM_P2
2022/01/09 00:03:24;;;;;;;;;;;;;;;0.56;73.67;93995.63;10375680;28;1838;-71
2022/01/09 00:08:27;;;;;;;;;;;;;;;0.60;72.23;93983.50;10369805;28;1719;-71
2022/01/09 00:13:31;;;;;;;;;;;;;;;0.69;75.99;94000.47;10374653;28;1760;-71
2022/01/09 00:18:34;;;;;;;;;;;;;;;0.67;72.50;93974.28;10368045;28;1985;-70
2022/01/09 00:23:37;;;;;;;;;;;;;;;0.62;76.48;93971.59;10374383;28;1898;-71
2022/01/09 00:28:41;;;;;;;;;;;;;;;0.61;73.00;93964.72;10372087;28;1862;-71
2022/01/09 00:33:45;;;;;;;;;;;;;;;0.52;73.85;93961.00;10374506;28;1878;-71
2022/01/09 00:38:48;;;;;;;;;;;;;;;0.71;75.46;93985.16;10378096;28;2012;-71
2022/01/09 00:43:51;;;;;;;;;;;;;;;0.85;74.56;93959.84;10381765;28;1814;-70
2022/01/09 00:48:55;;;;;;;;;;;;;;;0.88;72.02;93943.44;10366903;28;1846;-71
2022/01/09 00:53:58;;;;;;;;;;;;;;;0.90;75.08;93951.13;10377349;28;1851;-72
2022/01/09 00:59:01;;;;;;;;;;;;;;;0.85;72.62;93924.66;10374262;28;1918;-70
2022/01/09 01:04:05;;;;;;;;;;;;;;;0.89;74.00;93928.38;10378345;28;1865;-71
2022/01/09 01:09:08;;;;;;;;;;;;;;;0.89;74.51;93910.66;10381154;28;1839;-71
2022/01/09 01:14:12;;;;;;;;;;;;;;;0.86;73.25;93900.59;10367850;28;1831;-71
2022/01/09 01:19:15;;;;;;;;;;;;;;;0.93;73.35;93903.00;10379334;28;1910;-71
2022/01/09 01:24:21;;;;;;;;;;;;;;;0.87;74.40;93893.44;10377149;28;2083;-71
2022/01/09 01:29:24;;;;;;;;;;;;;;;0.95;73.38;93900.88;10376738;28;1799;-71
2022/01/09 01:34:28;;;;;;;;;;;;;;;1.04;74.66;93908.06;10379409;28;1783;-71
2022/01/09 01:39:31;;;;;;;;;;;;;;;1.13;74.49;93931.38;10375586;28;2016;-72
2022/01/09 01:44:35;;;;;;;;;;;;;;;1.11;73.98;93909.69;10378950;28;1838;-71
2022/01/09 01:49:38;;;;;;;;;;;;;;;1.00;78.58;93867.28;10377172;28;1827;-71
2022/01/09 01:54:42;;;;;;;;;;;;;;;0.60;85.00;93870.59;10372980;28;2030;-71
2022/01/09 01:59:47;;;;;;;;;;;;;;;0.47;97.47;93900.16;10375712;28;1981;-71
2022/01/09 02:04:50;;;;;;;;;;;;;;;0.40;99.05;93905.66;10376326;28;1837;-72
2022/01/09 02:09:53;;;;;;;;;;;;;;;0.41;100.00;93904.59;10374402;28;1822;-73
2022/01/09 02:14:57;;;;;;;;;;;;;;;0.39;100.00;93919.94;10371907;28;1909;-73
2022/01/09 02:20:03;;;;;;;;;;;;;;;0.31;100.00;93920.38;10373946;28;2004;-73
2022/01/09 02:25:07;;;;;;;;;;;;;;;0.24;100.00;93904.75;10371705;28;1977;-72
2022/01/09 02:30:11;;;;;;;;;;;;;;;0.20;100.00;93889.69;10377134;28;1911;-72
2022/01/09 02:35:15;;;;;;;;;;;;;;;0.08;100.00;93865.31;10374758;28;1896;-72
2022/01/09 02:40:18;;;;;;;;;;;;;;;0.03;100.00;93868.69;10373425;28;2017;-71
2022/01/09 02:45:23;;;;;;;;;;;;;;;0.05;100.00;93858.66;10366357;28;1985;-71
2022/01/09 02:50:35;;;;;;;;;;;;;;;0.12;100.00;93850.50;10375624;28;1855;-72
2022/01/09 02:55:38;;;;;;;;;;;;;;;0.14;100.00;93873.00;10366807;28;1935;-72
2022/01/09 03:00:42;;;;;;;;;;;;;;;0.18;100.00;93839.72;10365157;28;2091;-72
2022/01/09 03:05:46;;;;;;;;;;;;;;;0.18;100.00;93854.78;10374466;28;1941;-71
2022/01/09 03:10:49;;;;;;;;;;;;;;;0.14;100.00;93827.31;10367412;28;1935;-72
2022/01/09 03:15:52;;;;;;;;;;;;;;;0.15;100.00;93820.97;10371312;28;1993;-72
2022/01/09 03:20:56;;;;;;;;;;;;;;;0.18;100.00;93805.38;10377102;28;2031;-72
2022/01/09 03:26:02;;;;;;;;;;;;;;;0.28;100.00;93803.84;10370057;28;1944;-72
2022/01/09 03:31:05;;;;;;;;;;;;;;;0.37;100.00;93789.88;10368616;28;2081;-71
2022/01/09 03:36:09;;;;;;;;;;;;;;;0.42;100.00;93784.59;10370593;28;1968;-72
2022/01/09 03:41:13;;;;;;;;;;;;;;;0.40;100.00;93778.00;10374232;28;2076;-71
2022/01/09 03:46:16;;;;;;;;;;;;;;;0.40;100.00;93778.00;10372173;28;1852;-72
2022/01/09 03:51:21;;;;;;;;;;;;;;;0.40;100.00;93775.34;10367348;28;1938;-72
2022/01/09 03:56:24;;;;;;;;;;;;;;;0.52;100.00;93768.00;10370043;28;1978;-71
2022/01/09 04:01:28;;;;;;;;;;;;;;;0.60;100.00;93775.41;10369983;28;1986;-71
2022/01/09 04:06:31;;;;;;;;;;;;;;;0.65;100.00;93782.56;10371923;28;1898;-71
2022/01/09 04:11:38;;;;;;;;;;;;;;;0.57;100.00;93777.78;10370361;28;1930;-69
2022/01/09 04:16:41;;;;;;;;;;;;;;;0.69;100.00;93787.06;10371194;28;1913;-71
2022/01/09 04:21:44;;;;;;;;;;;;;;;0.97;100.00;93782.38;10369338;28;1986;-72
2022/01/09 04:26:48;;;;;;;;;;;;;;;1.18;100.00;93780.53;10369934;28;1966;-71
2022/01/09 04:31:51;;;;;;;;;;;;;;;1.23;100.00;93781.34;10365382;28;1981;-72
2022/01/09 04:36:58;;;;;;;;;;;;;;;1.23;100.00;93791.16;10368056;28;2024;-71
2022/01/09 04:42:02;;;;;;;;;;;;;;;1.17;100.00;93792.19;10367461;28;1977;-71
2022/01/09 04:47:10;;;;;;;;;;;;;;;1.12;100.00;93789.53;10366587;28;2021;-71
2022/01/09 04:52:17;;;;;;;;;;;;;;;1.00;100.00;93787.13;10361698;28;1990;-71
2022/01/09 04:57:21;;;;;;;;;;;;;;;1.00;100.00;93779.19;10369196;28;2001;-71
2022/01/09 05:02:24;;;;;;;;;;;;;;;1.08;100.00;93787.44;10374379;28;1961;-71
2022/01/09 05:07:27;;;;;;;;;;;;;;;1.12;100.00;93800.13;10374535;28;1965;-70
2022/01/09 05:12:31;;;;;;;;;;;;;;;1.25;100.00;93804.91;10378574;28;1964;-72
2022/01/09 05:17:34;;;;;;;;;;;;;;;1.36;100.00;93806.50;10372784;28;1924;-72
2022/01/09 05:22:37;;;;;;;;;;;;;;;1.54;100.00;93819.22;10376219;28;1924;-70
2022/01/09 05:27:41;;;;;;;;;;;;;;;1.66;100.00;93820.81;10379985;28;2040;-70
2022/01/09 05:32:44;;;;;;;;;;;;;;;1.86;100.00;93815.50;10372131;28;1939;-71
2022/01/09 05:37:50;;;;;;;;;;;;;;;2.07;100.00;93811.75;10373272;28;1978;-70
2022/01/09 05:42:53;;;;;;;;;;;;;;;2.03;100.00;93823.94;10372682;28;1993;-71
2022/01/09 05:47:57;;;;;;;;;;;;;;;2.12;100.00;93830.28;10372179;28;1930;-70
2022/01/09 05:53:00;;;;;;;;;;;;;;;2.22;100.00;93812.75;10367846;28;1981;-70
2022/01/09 05:58:03;;;;;;;;;;;;;;;2.32;100.00;93826.81;10373449;28;2455;-70
2022/01/09 06:03:07;;;;;;;;;;;;;;;2.45;100.00;93830.75;10371225;28;1936;-70
2022/01/09 06:08:10;;;;;;;;;;;;;;;2.48;100.00;93830.19;10368892;28;1897;-71
2022/01/09 06:13:14;;;;;;;;;;;;;;;2.53;100.00;93835.47;10372722;28;2010;-71
2022/01/09 06:18:17;;;;;;;;;;;;;;;2.54;100.00;93845.03;10374715;28;2000;-72
2022/01/09 06:23:20;;;;;;;;;;;;;;;2.41;100.00;93853.53;10372147;28;1979;-71
2022/01/09 06:28:24;;;;;;;;;;;;;;;2.30;100.00;93847.50;10375342;28;2004;-72
2022/01/09 06:33:27;;;;;;;;;;;;;;;2.23;100.00;93852.28;10386741;28;1676;-71
2022/01/09 06:38:31;;;;;;;;;;;;;;;2.21;100.00;93859.69;10378638;28;1953;-71
2022/01/09 06:43:34;;;;;;;;;;;;;;;2.23;100.00;93857.59;10379003;28;1961;-72
2022/01/09 06:48:38;;;;;;;;;;;;;;;2.29;100.00;93871.59;10384617;28;1863;-71
2022/01/09 06:53:41;;;;;;;;;;;;;;;2.29;100.00;93887.50;10366669;28;1972;-70
2022/01/09 06:58:44;;;;;;;;;;;;;;;2.43;100.00;93893.88;10377635;28;1977;-70
2022/01/09 07:03:48;;;;;;;;;;;;;;;2.32;100.00;93900.25;10382678;28;2008;-71
2022/01/09 07:08:51;;;;;;;;;;;3.20;99.90;;;2.27;100.00;93911.66;10377653;28;1899;-72
2022/01/09 07:13:54;;;;;;;;;;;3.30;99.90;;;2.25;100.00;93940.28;10374531;28;1939;-72
2022/01/09 07:18:57;;;;;;;;;;;3.30;99.90;;;2.22;100.00;93951.41;10368686;28;1993;-70
2022/01/09 07:24:00;;;;;;;;;;;3.30;99.90;;;2.23;100.00;93968.09;10371724;28;1915;-70
2022/01/09 07:29:05;;;;;;;;;;;3.30;99.90;;;2.12;100.00;93970.78;10372537;28;1990;-72
2022/01/09 07:34:08;;;;;;;;;;;3.20;99.90;;;1.92;100.00;94005.22;10372790;28;1936;-72
2022/01/09 07:39:11;;;;;;;;;;;3.10;99.90;;;1.75;100.00;94017.88;10367513;28;2034;-72
2022/01/09 07:44:14;;;;;;;;;;;2.90;99.90;;;1.60;100.00;94030.03;10371515;28;1915;-73
2022/01/09 07:49:17;;;;;;;;;;;2.80;99.90;;;1.56;100.00;94020.22;10367423;28;2089;-72
2022/01/09 07:54:21;;;;;;;;;;;2.70;99.90;;;1.55;100.00;94042.47;10370274;28;1993;-72
2022/01/09 07:59:24;;;;;;;;;;;2.80;99.90;;;1.44;100.00;94051.41;10365118;28;1910;-70
2022/01/09 08:04:27;;;;;;;;;;;2.50;99.90;;;1.32;100.00;94080.72;10371444;28;1370;-71
2022/01/09 08:09:31;;;;;;;;;;;2.40;99.90;;;1.34;100.00;94090.03;10371891;28;2073;-71
2022/01/09 08:14:33;;;;;;;;;;;2.40;99.90;;;1.32;100.00;94102.72;10369709;28;1961;-72
2022/01/09 08:19:36;;;;;;;;;;;2.40;99.90;;;1.31;100.00;94116.22;10369621;28;2033;-71
2022/01/09 08:24:40;;;;;;;;;;;2.40;99.90;;;1.29;100.00;94118.31;10360182;28;1966;-73
2022/01/09 08:29:42;;;;;;;;;;;2.30;99.90;;;1.33;100.00;94132.63;10361982;28;1939;-74
2022/01/09 08:34:46;;;;;;;;;;;2.30;99.90;;;1.45;100.00;94130.56;10380492;28;1908;-73
2022/01/09 08:39:49;;;;;;;;;;;2.40;99.90;;;1.50;100.00;94154.44;10376899;28;1994;-73
2022/01/09 08:44:52;;;;;;;;;;;2.50;99.90;;;1.61;100.00;94153.44;10370320;28;2016;-75
2022/01/09 08:49:55;;;;;;;;;;;2.60;99.90;;;1.73;100.00;94150.59;10368519;28;2024;-76
2022/01/09 08:54:58;;;;;;;;;;;2.70;99.90;;;1.79;100.00;94164.66;10378437;28;1988;-73
2022/01/09 09:00:01;;;;;;;;;;;2.70;99.90;;;1.93;100.00;94176.38;10367155;28;1972;-73
2022/01/09 09:05:05;;;;;;;;;;;2.90;99.90;;;2.09;100.00;94185.97;10371292;28;2025;-73
2022/01/09 09:10:08;;;;;;;;;;;3.00;99.90;;;2.14;100.00;94191.31;10373893;28;1957;-73
2022/01/09 09:15:12;;;;;;;;;;;4.40;99.90;;;2.27;100.00;94197.97;10373754;28;1936;-73
2022/01/09 09:20:15;;;;;;;;;;;3.20;99.90;;;2.32;100.00;94218.41;10379461;28;1984;-73
2022/01/09 09:25:18;;;;;;;;;;;3.30;99.90;;;2.39;100.00;94219.78;10368183;28;2010;-73
2022/01/09 09:30:21;;;;;;;;;;;3.30;99.90;;;2.34;100.00;94232.22;10389380;28;1680;-74
2022/01/09 09:35:24;;;;;;;;;;;3.40;99.90;;;2.25;100.00;94229.28;10376550;28;1965;-73
2022/01/09 09:40:27;;;;;;;;;;;3.30;99.90;;;2.31;100.00;94251.31;10376215;28;1967;-73
2022/01/09 09:45:30;;;;;;;;;;;3.30;99.90;;;2.26;100.00;94261.88;10377692;28;1974;-74
2022/01/09 09:50:33;;;;;;;;;;;3.20;99.90;;;2.41;100.00;94256.63;10381226;28;1926;-73
2022/01/09 09:55:35;;;;;;;;;;;3.40;99.90;;;2.55;100.00;94273.69;10371449;28;2072;-73
2022/01/09 10:00:39;;;;;;;;;;;3.50;99.90;;;2.74;100.00;94286.47;10377543;28;1990;-71
2022/01/09 10:05:42;;;;;;;;;;;3.70;99.90;;;2.64;100.00;94282.72;10377074;28;1920;-74
2022/01/09 10:10:45;;;;;;;;;;;3.70;99.90;;;2.33;100.00;94283.66;10371371;28;1935;-73
2022/01/09 10:15:49;;;;;;;;;;;3.50;99.90;;;2.21;100.00;94293.66;10373818;28;1978;-74
2022/01/09 10:20:52;;;;;;;;;;;3.30;99.90;;;2.18;100.00;94300.28;10374528;28;1907;-73
2022/01/09 10:25:55;;;;;;;;;;;3.10;99.90;;;2.30;100.00;94298.22;10369385;28;1857;-73
2022/01/09 10:30:59;;;;;;;;;;;3.70;99.90;;;2.33;100.00;94302.22;10368865;28;1965;-73
2022/01/09 10:36:02;;;;;;;;;;;3.30;99.90;;;2.64;100.00;94311.91;10379262;28;2056;-74
2022/01/09 10:41:05;;;;;;;;;;;3.50;99.90;;;2.63;100.00;94317.47;10360381;28;1910;-75
2022/01/09 10:46:08;;;;;;;;;;;3.60;99.90;;;2.69;100.00;94316.44;10370306;28;1929;-73
2022/01/09 10:51:11;;;;;;;;;;;3.60;99.90;;;2.85;100.00;94317.28;10369700;28;1940;-76
2022/01/09 10:56:15;;;;;;;;;;;3.70;99.90;;;3.03;100.00;94321.31;10370287;28;1897;-77
2022/01/09 11:01:17;;;;;;;;;;;3.90;99.90;;;3.12;100.00;94317.91;10368950;28;1971;-77
2022/01/09 11:06:20;;;;;;;;;;;4.00;99.90;;;3.16;100.00;94313.66;10373656;28;2014;-76
2022/01/09 11:11:31;;;;;;;;;;;4.20;99.90;;;3.03;100.00;94322.09;10365174;28;1861;-76
2022/01/09 11:16:34;;;;;;;;;;;4.10;99.90;;;3.11;100.00;94328.75;10385844;28;1896;-79
2022/01/09 11:21:38;;;;;;;;;;;4.10;99.90;;;3.42;100.00;94335.72;10401088;28;1985;-79
2022/01/09 11:26:41;;;;;;;;;;;4.30;99.90;;;3.49;97.14;94335.47;10405077;28;1994;-79
2022/01/09 11:31:45;;;;;;;;;;;4.40;99.90;;;3.62;93.67;94334.94;10391440;28;1948;-79
2022/01/09 11:36:48;;;;;;;;;;;4.60;99.90;;;3.56;93.14;94325.38;10383032;28;1711;-75
2022/01/09 11:41:51;;;;;;;;;;;4.50;99.90;;;3.65;93.02;94334.44;10384115;28;2097;-76
2022/01/09 11:46:54;;;;;;;;;;;4.60;99.90;;;3.71;92.16;94344.00;10383757;28;1985;-77
2022/01/09 11:51:57;;;;;;;;;;;4.60;99.90;;;3.73;91.23;94347.19;10378623;28;2019;-77
2022/01/09 11:57:03;;;;;;;;;;;4.70;99.90;;;3.51;93.92;94350.09;10377896;28;1951;-76
2022/01/09 12:02:15;;;;;;;;;;;4.50;99.90;;;3.43;91.09;94352.47;10369207;28;1910;-75
2022/01/09 12:07:19;;;;;;;;;;;5.50;99.90;;;3.28;90.58;94365.72;10391177;28;1893;-75
2022/01/09 12:12:22;;;;;;;;;;;4.30;99.90;;;3.41;89.59;94366.00;10371834;28;1966;-75
2022/01/09 12:17:26;;;;;;;;;;;4.30;99.90;;;3.36;88.45;94367.84;10372720;28;2087;-76
2022/01/09 12:22:29;;;;;;;;;;;4.50;99.90;;;3.24;88.24;94370.75;10392258;28;1910;-75
2022/01/09 12:27:32;;;;;;;;;;;4.40;99.90;;;3.44;87.86;94365.50;10382661;28;1272;-74
2022/01/09 12:32:35;;;;;;;;;;;4.60;99.90;;;3.75;86.98;94360.19;10377772;28;1441;-74
2022/01/09 12:37:39;;;;;;;;;;;4.50;99.90;;;3.78;85.33;94359.69;10379483;28;1633;-74
2022/01/09 12:42:43;;;;;;;;;;;4.70;99.90;;;3.77;84.30;94368.72;10375760;28;1969;-75
2022/01/09 12:47:46;;;;;;;;;;;4.70;99.90;;;4.01;80.20;94369.00;10389277;28;1583;-73
2022/01/09 12:52:49;;;;;;;;;;;5.00;99.90;;;4.24;82.35;94373.75;10390372;28;1462;-75
2022/01/09 12:57:52;;;;;;;;;;;5.10;99.90;;;4.47;82.23;94374.28;10375512;28;1288;-76
2022/01/09 13:02:55;;;;;;;;;;;5.30;99.90;;;4.29;80.71;94380.94;10367807;28;1975;-72
2022/01/09 13:07:58;;;;;;;;;;;5.30;99.90;;;4.08;81.34;94401.44;10375316;28;1911;-71
2022/01/09 13:13:02;;;;;;;;;;;5.30;99.90;;;3.73;83.63;94389.72;10377350;28;1796;-70
2022/01/09 13:18:05;;;;;;;;;;;4.90;99.90;;;3.77;83.22;94405.94;10371168;28;1693;-72
2022/01/09 13:23:08;;;;;;;;;;;4.80;99.90;;;3.60;83.17;94400.84;10376119;28;1977;-72
2022/01/09 13:28:11;;;;;;;;;;;4.70;99.90;;;3.59;84.66;94401.91;10370544;28;1819;-71
2022/01/09 13:33:14;;;;;;;;;;;4.60;99.90;;;3.58;84.62;94408.31;10366467;28;1798;-72
2022/01/09 13:38:18;;;;;;;;;;;4.70;99.90;;;3.73;84.04;94410.19;10367927;28;1872;-73
2022/01/09 13:43:21;;;;;;;;;;;4.70;99.90;;;3.83;85.06;94423.50;10365814;28;1906;-72
2022/01/09 13:48:24;;;;;;;;;;;4.80;99.90;;;3.84;82.55;94416.31;10373903;28;1807;-73
2022/01/09 13:53:35;;;;;;;;;;;4.80;99.90;;;3.89;80.46;94403.03;10375667;28;1905;-71
2022/01/09 13:58:39;;;;;;;;;;;4.90;99.90;;;3.78;78.86;94413.66;10379927;28;1850;-77
2022/01/09 14:03:42;;;;;;;;;;;4.80;99.90;;;3.64;78.85;94423.19;10380012;28;1922;-77
2022/01/09 14:08:45;;;;;;;;;;;4.80;99.90;;;3.78;79.19;94424.28;10380937;28;1834;-77
2022/01/09 14:13:48;;;;;;;;;;;4.80;99.90;;;3.67;81.05;94427.97;10377722;28;1728;-76
2022/01/09 14:18:51;;;;;;;;;;;4.80;99.90;;;3.61;79.18;94434.34;10383418;28;1806;-76
2022/01/09 14:23:54;;;;;;;;;;;4.70;99.90;;;3.82;80.29;94434.38;10385747;28;1914;-77
2022/01/09 14:28:57;;;;;;;;;;;4.70;99.90;;;3.70;78.24;94427.47;10388187;28;1852;-76
2022/01/09 14:34:00;;;;;;;;;;;4.80;99.90;;;3.46;80.00;94426.34;10388006;28;1795;-77
2022/01/09 14:39:03;;;;;;;;;;;4.60;99.90;;;3.23;78.72;94428.38;10374462;28;1914;-75
2022/01/09 14:44:07;;;;;;;;;;;4.40;99.90;;;2.97;81.73;94430.13;10364666;28;1902;-74
2022/01/09 14:49:10;;;;;;;;;;;4.30;99.90;;;2.85;81.57;94431.41;10370593;28;1855;-74
2022/01/09 14:54:13;;;;;;;;;;;4.10;99.90;;;2.71;81.90;94420.44;10370319;28;1965;-73
2022/01/09 14:59:16;;;;;;;;;;;4.00;99.90;;;2.62;82.81;94428.09;10364362;28;1944;-73
2022/01/09 15:04:19;;;;;;;;;;;3.80;99.90;;;2.61;84.16;94431.03;10357838;28;1979;-73
2022/01/09 15:09:22;;;;;;;;;;;3.80;99.90;;;2.42;84.01;94434.09;10369985;28;1804;-74
2022/01/09 15:14:25;;;;;;;;;;;3.70;99.90;;;2.37;86.08;94451.81;10365949;28;1814;-71
2022/01/09 15:19:28;;;;;;;;;;;3.60;99.90;;;2.25;86.03;94459.13;10366294;28;1983;-72
2022/01/09 15:24:32;;;;;;;;;;;3.50;99.90;;;2.18;86.48;94464.66;10359235;28;1979;-72
2022/01/09 15:29:35;;;;;;;;;;;3.50;99.90;;;2.19;87.82;94470.75;10370397;28;1903;-73
2022/01/09 15:34:38;;;;;;;;;;;3.40;99.90;;;2.12;88.38;94481.56;10375332;28;1862;-72
2022/01/09 15:39:42;;;;;;;;;;;3.30;99.90;;;1.98;89.61;94481.19;10368834;28;1740;-74
2022/01/09 15:44:45;;;;;;;;;;;3.30;99.90;;;1.91;90.04;94485.91;10364864;28;1969;-73
2022/01/09 15:49:48;;;;;;;;;;;3.20;99.90;;;1.81;91.03;94488.44;10367255;28;1779;-72
2022/01/09 15:54:53;;;;;;;;;;;3.10;99.90;;;1.80;90.77;94494.78;10369941;28;3469;-74
2022/01/09 15:59:56;;;;;;;;;;;3.10;99.90;;;1.68;92.19;94502.88;10376193;28;1802;-73
2022/01/09 16:04:59;;;;;;;;;;;3.00;99.90;;;1.61;92.82;94496.97;10365030;28;1989;-73
2022/01/09 16:10:02;;;;;;;;;;;2.90;99.90;;;1.57;93.33;94501.97;10373998;28;1228;-74
2022/01/09 16:15:06;;;;;;;;;;;2.80;99.90;;;1.51;93.88;94502.94;10369624;28;1842;-73
2022/01/09 16:20:09;;;;;;;;;;;2.80;99.90;;;1.48;94.50;94503.47;10363634;28;1898;-75
2022/01/09 16:25:12;;;;;;;;;;;2.80;99.90;;;1.43;95.60;94506.03;10348787;28;1981;-75
2022/01/09 16:30:15;;;;;;;;;;;2.70;99.90;;;1.40;95.77;94517.13;10352439;28;1883;-76
2022/01/09 16:35:18;;;;;;;;;;;2.70;99.90;;;1.42;95.45;94503.66;10356319;28;2132;-74
2022/01/09 16:40:21;;;;;;;;;;;2.60;99.90;;;1.31;96.65;94515.97;10361955;28;1815;-75
2022/01/09 16:45:24;;;;;;;;;;;2.60;99.90;;;1.17;97.18;94522.66;10357287;28;1981;-76
2022/01/09 16:50:27;;;;;;;;;;;2.50;99.90;;;1.14;97.88;94523.13;10365560;28;2501;-77
2022/01/09 16:55:30;;;;;;;;;;;2.40;99.90;;;1.05;99.20;94525.41;10378447;28;2159;-74
2022/01/09 17:00:35;;;;;;;;;;;2.30;99.90;;;1.03;99.92;94520.38;10374412;28;2190;-74
2022/01/09 17:05:38;;;;;;;;;;;2.30;99.90;;;0.97;100.00;94541.72;10402296;28;1906;-76
2022/01/09 17:10:41;;;;;;;;;;;2.20;99.90;;;0.88;100.00;94546.59;10397235;28;1795;-73
2022/01/09 17:15:44;;;;;;;;;;;2.20;99.90;;;0.87;100.00;94547.66;10374103;28;1779;-76
2022/01/09 17:20:47;;;;;;;;;;;2.20;99.90;;;0.99;100.00;94548.38;10390985;28;1842;-73
2022/01/09 17:25:50;;;;;;;;;;;2.20;99.90;;;1.00;100.00;94560.53;10394802;28;1973;-74
2022/01/09 17:30:53;;;;;;;;;;;2.20;99.90;;;0.99;100.00;94558.94;10373581;28;1771;-75
2022/01/09 17:35:56;;;;;;;;;;;2.20;99.90;;;1.13;100.00;94569.19;10370203;28;1811;-76
2022/01/09 17:41:00;;;;;;;;;;;2.20;99.90;;;1.16;100.00;94572.16;10379318;28;1819;-77
2022/01/09 17:46:03;;;;;;;;;;;2.30;99.90;;;1.21;100.00;94576.69;10379799;28;1837;-77
2022/01/09 17:51:06;;;;;;;;;;;2.40;99.90;;;1.30;99.42;94586.63;10353009;28;1961;-76
2022/01/09 17:56:09;;;;;;;;;;;2.40;99.90;;;1.27;99.78;94586.31;10370797;28;1862;-77
2022/01/09 18:01:13;;;;;;;;;;;2.40;99.90;;;1.36;99.85;94595.44;10374473;28;1934;-77
2022/01/09 18:06:20;;;;;;;;;;;2.50;99.90;;;1.45;99.60;94606.41;10376152;28;1870;-78
2022/01/09 18:11:23;;;;;;;;;;;2.90;99.90;;;1.54;97.94;94624.31;10358143;28;1882;-75
2022/01/09 18:16:26;;;;;;;;;;;2.60;99.90;;;1.57;97.71;94629.09;10364660;28;1782;-78
2022/01/09 18:21:31;;;;;;;;;;;1.80;99.90;;;1.58;97.66;94636.00;10355882;28;2155;-75
2022/01/09 18:26:35;;;;;;;;;;;2.70;99.90;;;1.60;97.57;94638.41;10390980;28;2388;-76
2022/01/09 18:31:38;;;;;;;;;;;2.70;99.90;;;1.67;97.06;94643.53;10381334;28;1788;-78
2022/01/09 18:36:41;;;;;;;;;;;2.70;99.90;;;1.68;97.09;94650.44;10380652;28;1846;-76
2022/01/09 18:41:44;;;;;;;;;;;2.70;99.90;;;1.64;96.77;94655.41;10388836;28;1918;-79
2022/01/09 18:46:47;;;;;;;;;;;2.80;99.90;;;1.70;97.06;94657.06;10405329;28;1830;-80
2022/01/09 18:51:52;;;;;;;;;;;2.70;99.90;;;1.63;96.92;94665.19;10387646;28;1982;-78
2022/01/09 18:57:01;;;;;;;;;;;2.70;99.90;;;1.66;97.16;94665.78;10387317;28;1846;-80
2022/01/09 19:02:04;;;;;;;;;;;2.70;99.90;;;1.68;97.06;94671.63;10390509;28;1914;-78
2022/01/09 19:07:07;;;;;;;;;;;2.70;99.90;;;1.58;97.26;94673.06;10387596;28;1904;-78
2022/01/09 19:12:12;;;;;;;;;;;2.70;99.90;;;1.48;98.07;94683.53;10386984;28;1844;-76
2022/01/09 19:17:16;;;;;;;;;;;2.70;99.90;;;1.31;98.79;94693.34;10383637;28;1807;-76
2022/01/09 19:22:21;;;;;;;;;;;2.10;99.90;;;1.18;100.00;94691.03;10380988;28;1959;-78
2022/01/09 19:27:24;;;;;;;;;;;2.40;99.90;;;1.07;100.00;94693.50;10388294;28;1901;-79
2022/01/09 19:32:27;;;;;;;;;;;2.30;99.90;;;0.99;100.00;94691.25;10404178;28;2194;-80
2022/01/09 19:37:30;;;;;;;;;;;2.30;99.90;;;0.98;100.00;94694.94;10402324;28;1767;-80
2022/01/09 19:42:33;;;;;;;;;;;2.20;99.90;;;1.03;100.00;94705.63;10388768;28;1993;-77
2022/01/09 19:47:37;;;;;;;;;;;2.20;99.90;;;1.16;100.00;94716.94;10375976;28;1852;-74
2022/01/09 19:52:40;;;;;;;;;;;2.30;99.90;;;1.25;100.00;94715.47;10365709;28;1902;-75
2022/01/09 19:57:44;;;;;;;;;;;2.30;99.90;;;1.32;100.00;94711.63;10367030;28;2218;-75
2022/01/09 20:02:47;;;;;;;;;;;2.40;99.90;;;1.40;99.69;94718.38;10373500;28;1981;-75
2022/01/09 20:07:50;;;;;;;;;;;2.40;99.90;;;1.34;100.00;94733.38;10376628;28;1870;-75
2022/01/09 20:12:54;;;;;;;;;;;2.50;99.90;;;1.35;100.00;94731.53;10372720;28;1861;-76
2022/01/09 20:17:57;;;;;;;;;;;2.40;99.90;;;1.33;100.00;94741.53;10369311;28;1856;-77
2022/01/09 20:23:01;;;;;;;;;;;2.40;99.90;;;1.35;100.00;94736.84;10392053;23;3715;-70
2022/01/09 20:28:08;;;;;;;;;;;2.40;99.90;;;1.31;100.00;94725.09;10379247;28;1876;-69
2022/01/09 20:33:12;;;;;;;;;;;2.40;99.90;;;1.40;100.00;94728.97;10373203;28;1862;-69
2022/01/09 20:38:15;;;;;;;;;;;2.60;99.90;;;1.40;100.00;94744.88;10374769;28;1927;-70
2022/01/09 20:43:19;;;;;;;;;;;2.50;99.90;;;1.37;100.00;94741.88;10370480;28;1910;-69
2022/01/09 20:48:24;;;;;;;;;;;2.50;99.90;;;1.32;100.00;94742.59;10377840;28;1854;-71
2022/01/09 20:53:27;;;;;;;;;;;2.40;99.90;;;1.28;100.00;94747.59;10376096;28;1861;-69
2022/01/09 20:58:30;;;;;;;;;;;2.70;99.90;;;1.26;100.00;94756.78;10376850;28;2174;-67
2022/01/09 21:03:34;;;;;;;;;;;2.40;99.90;;;1.30;100.00;94764.03;10376707;28;1931;-69
2022/01/09 21:08:37;;;;;;;;;;;2.40;99.90;;;1.22;100.00;94758.34;10374444;28;1842;-66
2022/01/09 21:13:41;;;;;;;;;;;2.40;99.90;;;1.19;100.00;94753.50;10369640;28;2013;-68
2022/01/09 21:18:44;;;;;;;;;;;2.30;99.90;;;1.17;100.00;94769.63;10385241;28;1904;-68
2022/01/09 21:23:47;;;;;;;;;;;2.30;99.90;;;1.20;100.00;94771.00;10378242;28;1932;-68
2022/01/09 21:28:50;;;;;;;;;;;2.30;99.90;;;1.31;100.00;94772.78;10379330;28;1885;-68
2022/01/09 21:33:53;;;;;;;;;;;2.40;99.90;;;1.37;100.00;94779.75;10381931;28;1857;-69
2022/01/09 21:38:56;;;;;;;;;;;2.40;99.90;;;1.39;100.00;94780.31;10375518;28;1885;-69
2022/01/09 21:43:59;;;;;;;;;;;2.50;99.90;;;1.35;100.00;94779.19;10364445;28;1949;-68
2022/01/09 21:49:02;;;;;;;;;;;2.40;99.90;;;1.38;99.52;94793.78;10374832;28;1949;-69
2022/01/09 21:54:06;;;;;;;;;;;2.40;99.90;;;1.32;100.00;94795.53;10373694;28;1826;-70
2022/01/09 21:59:10;;;;;;;;;;;2.40;99.90;;;1.30;100.00;94800.28;10383670;28;1815;-68
2022/01/09 22:04:13;;;;;;;;;;;2.40;99.90;;;1.35;100.00;94797.72;10379038;28;1970;-68
2022/01/09 22:09:16;;;;;;;;;;;2.40;99.90;;;1.31;99.84;94804.53;10382157;28;1945;-67
2022/01/09 22:14:19;;;;;;;;;;;2.40;99.90;;;1.34;100.00;94804.06;10398773;28;1986;-69
2022/01/09 22:19:23;;;;;;;;;;;2.40;99.90;;;1.24;100.00;94814.47;10386950;28;1915;-70
2022/01/09 22:24:26;;;;;;;;;;;2.40;99.90;;;1.18;100.00;94816.22;10386468;28;1976;-68
2022/01/09 22:29:29;;;;;;;;;;;2.30;99.90;;;1.21;100.00;94829.00;10378896;28;2194;-66
2022/01/09 22:34:33;;;;;;;;;;;2.30;99.90;;;1.28;100.00;94826.22;10374734;28;1826;-70
2022/01/09 22:39:36;;;;;;;;;;;2.30;99.90;;;1.31;100.00;94831.81;10377627;28;1840;-67
2022/01/09 22:44:39;;;;;;;;;;;2.30;99.90;;;1.30;99.84;94829.41;10374595;28;1910;-69
2022/01/09 22:49:44;;;;;;;;;;;2.40;99.90;;;1.22;100.00;94832.47;10370520;28;1902;-69
2022/01/09 22:54:48;;;;;;;;;;;2.30;99.90;;;1.21;100.00;94844.06;10365591;28;1842;-67
2022/01/09 22:59:51;;;;;;;;;;;2.30;99.90;;;1.21;100.00;94852.84;10377936;28;1390;-68
2022/01/09 23:04:54;;;;;;;;;;;2.30;99.90;;;1.15;100.00;94853.78;10370110;28;1917;-68
2022/01/09 23:09:59;;;;;;;;;;;2.20;99.90;;;1.19;100.00;94862.03;10377427;28;1897;-69
2022/01/09 23:15:02;;;;;;;;;;;2.30;99.90;;;1.22;100.00;94870.31;10365678;28;1820;-70
2022/01/09 23:20:05;;;;;;;;;;;2.30;99.90;;;1.12;100.00;94872.78;10375335;28;1854;-68
2022/01/09 23:25:09;;;;;;;;;;;2.30;99.90;;;1.18;100.00;94878.97;10375095;28;1910;-67
2022/01/09 23:30:12;;;;;;;;;;;2.30;99.90;;;1.15;100.00;94879.44;10389071;28;1862;-67
2022/01/09 23:35:15;;;;;;;;;;;2.20;99.90;;;1.23;100.00;94876.41;10402542;28;1801;-66
2022/01/09 23:40:19;;;;;;;;;;;2.30;99.90;;;1.21;100.00;94883.78;10372865;28;1794;-74
2022/01/09 23:45:23;;;;;;;;;;;2.30;99.90;;;1.23;100.00;94887.00;10370378;28;1914;-69
2022/01/09 23:50:26;;;;;;;;;;;2.30;99.90;;;1.24;100.00;94883.31;10370430;28;1950;-69
2022/01/09 23:55:29;;;;;;;;;;;2.30;99.90;;;1.14;100.00;94893.69;10365882;28;2534;-70
